Time;durP1;ratioP1;P1;durP2;ratioP2;P2;SDS_P1;SDS_P2;PMS_P1;PMS_P2;Temp;Humidity;BMP_temperature;BMP_pressure;BME280_temperature;BME280_humidity;BME280_pressure;Samples;Min_cycle;Max_cycle;Signal;HPM_P1;HPM_P2
2022/06/25 00:01:16;;;;;;;25.20;21.55;;;;;;;;;;5052848;28;20037;-69
2022/06/25 00:03:42;;;;;;;28.15;22.63;;;17.70;99.90;;;;;;5053603;28;20041;-69
2022/06/25 00:06:08;;;;;;;24.60;21.85;;;17.60;99.90;;;;;;5036028;28;20050;-69
2022/06/25 00:08:35;;;;;;;25.35;22.40;;;17.60;99.90;;;;;;5052017;28;20037;-70
2022/06/25 00:11:01;;;;;;;29.27;24.88;;;17.20;99.90;;;;;;5053640;28;20383;-70
2022/06/25 00:13:27;;;;;;;24.75;22.13;;;17.50;99.90;;;;;;5052636;28;20051;-70
2022/06/25 00:15:53;;;;;;;26.92;24.13;;;17.80;99.90;;;;;;5051566;28;20481;-70
2022/06/25 00:18:18;;;;;;;24.75;22.10;;;17.40;99.90;;;;;;5053938;28;20543;-70
2022/06/25 00:20:45;;;;;;;25.08;22.48;;;17.50;99.90;;;;;;5053560;28;20033;-69
2022/06/25 00:23:11;;;;;;;22.88;20.48;;;17.40;99.90;;;;;;5051467;28;20116;-70
2022/06/25 00:25:37;;;;;;;26.30;23.45;;;17.60;99.90;;;;;;5051576;28;20449;-69
2022/06/25 00:28:03;;;;;;;24.85;22.15;;;17.40;99.90;;;;;;5053312;28;20159;-69
2022/06/25 00:30:29;;;;;;;21.60;19.33;;;17.40;99.90;;;;;;5052858;28;20037;-69
2022/06/25 00:32:55;;;;;;;21.63;19.38;;;17.70;99.90;;;;;;5053121;28;20037;-70
2022/06/25 00:35:21;;;;;;;22.67;19.52;;;;;;;;;;5035664;28;20044;-70
2022/06/25 00:37:48;;;;;;;27.77;24.48;;;;;;;;;;5052543;28;20045;-69
2022/06/25 00:40:14;;;;;;;25.73;22.95;;;;;;;;;;5052133;28;20045;-69
2022/06/25 00:42:46;;;;;;;27.30;24.38;;;;;;;;;;5052094;28;20079;-69
2022/06/25 00:45:12;;;;;;;28.67;25.75;;;;;;;;;;5052186;28;20037;-70
2022/06/25 00:47:39;;;;;;;26.88;23.67;;;;;;;;;;5052990;28;20139;-69
2022/06/25 00:50:08;;;;;;;28.10;25.20;;;;;;;;;;5052201;28;20037;-69
2022/06/25 00:52:34;;;;;;;27.55;24.65;;;;;;;;;;5051268;28;20047;-70
2022/06/25 00:55:08;;;;;;;33.25;28.08;;;;;;;;;;5051189;28;20556;-70
2022/06/25 00:57:35;;;;;;;30.23;27.17;;;;;;;;;;5051785;28;20373;-69
2022/06/25 01:00:06;;;;;;;34.05;30.67;;;;;;;;;;5050565;28;20040;-70
2022/06/25 01:02:32;;;;;;;32.55;29.08;;;;;;;;;;5051741;28;20561;-69
2022/06/25 01:04:58;;;;;;;30.55;27.45;;;;;;;;;;5051642;28;20033;-70
2022/06/25 01:07:24;;;;;;;30.98;25.92;;;;;;;;;;5053060;28;20040;-70
2022/06/25 01:09:51;;;;;;;28.75;25.67;;;;;;;;;;5052316;28;20041;-69
2022/06/25 01:12:17;;;;;;;26.60;23.80;;;;;;;;;;5034245;28;20076;-70
2022/06/25 01:14:43;;;;;;;28.60;25.50;;;;;;;;;;5051323;28;20486;-70
2022/06/25 01:17:10;;;;;;;26.38;23.65;;;;;;;;;;5052212;28;20045;-70
2022/06/25 01:19:37;;;;;;;27.92;25.02;;;;;;;;;;5052165;28;20040;-70
2022/06/25 01:22:03;;;;;;;27.23;24.33;;;;;;;;;;5051378;28;20470;-70
2022/06/25 01:24:29;;;;;;;24.92;22.27;;;;;;;;;;5052770;28;20076;-70
2022/06/25 01:26:56;;;;;;;24.55;21.00;;;;;;;;;;5051265;28;20393;-69
2022/06/25 01:29:22;;;;;;;25.13;21.88;;;;;;;;;;5051598;28;20049;-69
2022/06/25 01:31:48;;;;;;;24.40;21.77;;;;;;;;;;5050844;28;20055;-69
2022/06/25 01:34:14;;;;;;;22.88;20.48;;;;;;;;;;5051767;28;20119;-69
2022/06/25 01:36:40;;;;;;;28.50;24.27;;;;;;;;;;5051042;28;20095;-69
2022/06/25 01:39:06;;;;;;;24.85;21.85;;;;;;;;;;5050721;28;20121;-70
2022/06/25 01:41:32;;;;;;;25.10;22.40;;;;;;;;;;5050445;28;20420;-70
2022/06/25 01:43:58;;;;;;;25.00;22.38;;;;;;;;;;5051757;28;20033;-69
2022/06/25 01:46:24;;;;;;;26.73;23.88;;;;;;;;;;5050944;28;20053;-69
2022/06/25 01:48:50;;;;;;;26.77;23.88;;;;;;;;;;5049676;28;20123;-69
2022/06/25 01:51:17;;;;;;;25.80;23.10;;;;;;;;;;5051347;28;20095;-70
2022/06/25 01:53:45;;;;;;;24.58;21.95;;;;;;;;;;5050787;28;20498;-70
2022/06/25 01:56:11;;;;;;;23.77;20.55;;;;;;;;;;5051033;28;20494;-69
2022/06/25 01:58:37;;;;;;;22.17;19.73;;;;;;;;;;5052141;28;20115;-70
2022/06/25 02:01:04;;;;;;;25.33;22.35;;;;;;;;;;5050837;28;20080;-70
2022/06/25 02:03:30;;;;;;;24.48;21.85;;;;;;;;;;5034420;28;20052;-69
2022/06/25 02:05:59;;;;;;;24.50;21.95;;;;;;;;;;5051775;28;20037;-70
2022/06/25 02:08:25;;;;;;;31.08;27.77;;;;;;;;;;5051390;28;20159;-69
2022/06/25 02:10:51;;;;;;;31.00;27.70;;;;;;;;;;5033409;28;20124;-70
2022/06/25 02:13:17;;;;;;;33.40;29.83;;;;;;;;;;5050705;28;20563;-70
2022/06/25 02:15:43;;;;;;;40.50;36.40;;;;;;;;;;5051140;28;20037;-70
2022/06/25 02:18:10;;;;;;;40.15;35.78;;;;;;;;;;5050415;28;20045;-70
2022/06/25 02:20:37;;;;;;;38.33;34.60;;;;;;;;;;5052129;28;20041;-70
2022/06/25 02:23:04;;;;;;;37.28;33.50;;;;;;;;;;5049304;28;20049;-70
2022/06/25 02:25:30;;;;;;;34.42;30.83;;;;;;;;;;5050770;28;20044;-70
2022/06/25 02:27:56;;;;;;;35.40;31.80;;;;;;;;;;5050403;28;20041;-70
2022/06/25 02:30:22;;;;;;;34.70;31.15;;;;;;;;;;5049849;28;20056;-70
2022/06/25 02:32:48;;;;;;;30.88;26.20;;;;;;;;;;5050924;28;20124;-70
2022/06/25 02:35:14;;;;;;;28.92;25.70;;;;;;;;;;5052079;28;20044;-70
2022/06/25 02:37:40;;;;;;;26.13;23.20;;;;;;;;;;5051108;28;20052;-70
2022/06/25 02:40:07;;;;;;;22.30;18.50;;;;;;;;;;5051223;28;20037;-70
2022/06/25 02:42:34;;;;;;;22.85;19.65;;;;;;;;;;5033745;28;20041;-70
2022/06/25 02:45:00;;;;;;;22.92;19.35;;;;;;;;;;5032584;28;20130;-70
2022/06/25 02:47:26;;;;;;;23.95;19.27;;;;;;;;;;5050331;28;20064;-70
2022/06/25 02:49:52;;;;;;;20.55;17.50;;;;;;;;;;5053168;28;20057;-70
2022/06/25 02:52:18;;;;;;;20.02;17.92;;;;;;;;;;5053756;28;20063;-70
2022/06/25 02:54:44;;;;;;;22.83;16.90;;;;;;;;;;5055558;28;20037;-70
2022/06/25 02:59:55;;;;;;;19.45;15.75;;;;;;;;;;5053607;28;20132;-70
2022/06/25 03:02:21;;;;;;;17.85;15.80;;;;;;;;;;5054437;28;20119;-70
2022/06/25 03:04:47;;;;;;;23.80;18.52;;;;;;;;;;5054352;28;20520;-70
2022/06/25 03:07:13;;;;;;;20.02;17.73;;;;;;;;;;5055052;28;20445;-70
2022/06/25 03:09:39;;;;;;;22.58;20.17;;;;;;;;;;5053795;28;20080;-70
2022/06/25 03:12:05;;;;;;;21.35;18.63;;;;;;;;;;5053818;28;20052;-70
2022/06/25 03:14:31;;;;;;;24.05;21.42;;;;;;;;;;5055134;28;20041;-70
2022/06/25 03:16:57;;;;;;;28.20;25.17;;;;;;;;;;5054419;28;20128;-70
2022/06/25 03:19:24;;;;;;;24.08;20.75;;;;;;;;;;5036875;28;20141;-70
2022/06/25 03:21:50;;;;;;;24.23;21.55;;;;;;;;;;5036627;28;20037;-70
2022/06/25 03:24:16;;;;;;;26.83;22.08;;;;;;;;;;5053484;28;20040;-70
2022/06/25 03:26:42;;;;;;;23.23;20.75;;;;;;;;;;5054391;28;20116;-70
2022/06/25 03:29:09;;;;;;;21.67;19.42;;;;;;;;;;5054690;28;20098;-70
2022/06/25 03:31:35;;;;;;;21.55;19.35;;;;;;;;;;5053790;28;20045;-70
2022/06/25 03:34:01;;;;;;;19.15;17.08;;;;;;;;;;5052242;28;20543;-70
2022/06/25 03:36:27;;;;;;;18.05;14.63;;;;;;;;;;5053724;28;20037;-70
2022/06/25 03:38:53;;;;;;;18.52;16.02;;;;;;;;;;5052740;28;20045;-70
2022/06/25 03:41:37;;;;;;;15.95;14.25;;;;;;;;;;5052702;28;20041;-70
2022/06/25 03:44:08;;;;;;;16.00;14.10;;;;;;;;;;5052860;28;20045;-70
2022/06/25 03:46:35;;;;;;;18.75;14.60;;;;;;;;;;5052371;28;20101;-70
2022/06/25 03:49:01;;;;;;;17.70;14.10;;;;;;;;;;5052809;28;20049;-70
2022/06/25 03:51:28;;;;;;;15.15;13.52;;;;;;;;;;5054313;28;20064;-69
2022/06/25 03:53:54;;;;;;;18.67;15.10;;;;;;;;;;5051793;28;20049;-70
2022/06/25 03:56:20;;;;;;;16.88;15.27;;;;;;;;;;5053322;28;20432;-70
2022/06/25 03:58:46;;;;;;;17.73;16.00;;;;;;;;;;5054153;28;20075;-70
2022/06/25 04:01:13;;;;;;;17.15;13.48;;;;;;;;;;5051950;28;20040;-70
2022/06/25 04:03:39;;;;;;;15.90;13.82;;;;;;;;;;5052883;28;20128;-70
2022/06/25 04:06:05;;;;;;;17.08;15.02;;;;;;;;;;5053461;28;20120;-70
2022/06/25 04:08:32;;;;;;;17.90;14.48;;;;;;;;;;5052086;28;20045;-70
2022/06/25 04:10:58;;;;;;;16.38;13.50;;;;;;;;;;5035661;28;20133;-70
2022/06/25 04:13:24;;;;;;;16.67;14.18;;;;;;;;;;5036237;28;20044;-70
2022/06/25 04:15:50;;;;;;;14.23;12.77;;;;;;;;;;5051461;28;20072;-70
2022/06/25 04:18:16;;;;;;;18.80;13.20;;;;;;;;;;5053911;28;20048;-70
2022/06/25 04:20:42;;;;;;;15.55;13.73;;;;;;;;;;5052595;28;20040;-70
2022/06/25 04:23:08;;;;;;;15.98;14.38;;;;;;;;;;5051550;28;20072;-70
2022/06/25 04:25:34;;;;;;;15.77;13.23;;;;;;;;;;5053807;28;20485;-70
2022/06/25 04:30:45;;;;;;;16.25;14.60;;;;;;;;;;5051696;28;20056;-70
2022/06/25 04:33:11;;;;;;;14.10;12.20;;;;;;;;;;5052411;28;20037;-70
2022/06/25 04:35:37;;;;;;;16.23;12.32;;;;;;;;;;5052527;28;20128;-70
2022/06/25 04:38:03;;;;;;;13.82;12.35;;;;;;;;;;5050966;28;20067;-70
2022/06/25 04:40:29;;;;;;;12.45;11.05;;;;;;;;;;5052487;28;20032;-70
2022/06/25 04:42:56;;;;;;;13.02;11.48;;;;;;;;;;5034468;28;20048;-70
2022/06/25 04:45:22;;;;;;;12.68;11.30;;;;;;;;;;5052469;28;20371;-70
2022/06/25 04:47:48;;;;;;;14.60;11.80;;;;;;;;;;5034850;28;20144;-70
2022/06/25 04:50:14;;;;;;;12.90;11.02;;;;;;;;;;5051031;28;20049;-70
2022/06/25 04:52:40;;;;;;;12.95;10.10;;;;;;;;;;5053387;28;20041;-70
2022/06/25 04:55:06;;;;;;;11.35;10.15;;;;;;;;;;5052777;28;20041;-70
2022/06/25 04:57:32;;;;;;;13.27;11.63;;;;;;;;;;5052436;28;20478;-70
2022/06/25 04:59:58;;;;;;;13.63;10.23;;;;;;;;;;5051381;28;20076;-70
2022/06/25 05:02:24;;;;;;;14.38;11.10;;;18.10;99.90;;;;;;5053029;28;20116;-70
2022/06/25 05:04:50;;;;;;;13.90;11.73;;;18.70;99.90;;;;;;5050361;28;20125;-70
2022/06/25 05:07:15;;;;;;;13.93;11.65;;;17.90;99.90;;;;;;5053256;28;20044;-70
2022/06/25 05:09:41;;;;;;;11.02;9.93;;;18.20;99.90;;;;;;5053020;28;20074;-70
2022/06/25 05:12:07;;;;;;;12.60;10.20;;;19.10;99.90;;;;;;5045187;28;20040;-70
2022/06/25 05:14:33;;;;;;;11.35;9.43;;;;;;;;;;5055962;28;20083;-70
2022/06/25 05:16:59;;;;;;;13.63;9.32;;;18.30;99.90;;;;;;5046877;28;20045;-70
2022/06/25 05:19:25;;;;;;;11.20;9.43;;;;;;;;;;5065514;28;20083;-71
2022/06/25 05:21:51;;;;;;;11.88;9.38;;;;;;;;;;5058879;28;20068;-71
2022/06/25 05:24:17;;;;;;;10.35;8.48;;;;;;;;;;5071902;28;20393;-70
2022/06/25 05:26:43;;;;;;;13.13;9.13;;;;;;;;;;5031109;28;20433;-71
2022/06/25 05:29:09;;;;;;;10.60;8.48;;;;;;;;;;5028631;28;20056;-71
2022/06/25 05:31:35;;;;;;;11.98;9.57;;;;;;;;;;5030167;28;20040;-71
2022/06/25 05:34:01;;;;;;;11.13;8.05;;;;;;;;;;5027468;28;20041;-71
2022/06/25 05:36:27;;;;;;;12.38;8.40;;;;;;;;;;5028492;28;20045;-71
2022/06/25 05:38:53;;;;;;;13.07;9.10;;;;;;;;;;5029068;28;20103;-71
2022/06/25 05:41:19;;;;;;;15.35;10.57;;;;;;;;;;5019526;28;20425;-71
2022/06/25 05:43:45;;;;;;;11.05;8.50;;;;;;;;;;5048220;28;20041;-71
2022/06/25 05:46:11;;;;;;;10.50;7.97;;;;;;;;;;5048617;28;20052;-71
2022/06/25 05:48:37;;;;;;;10.48;8.35;;;;;;;;;;5047794;28;20092;-70
2022/06/25 05:51:03;;;;;;;11.68;8.13;;;19.90;99.90;;;;;;5044947;28;20061;-70
2022/06/25 05:53:29;;;;;;;12.90;8.45;;;;;;;;;;5042331;28;20905;-71
2022/06/25 05:55:55;;;;;;;9.85;7.32;;;;;;;;;;5043103;28;20045;-71
2022/06/25 05:58:22;;;;;;;10.35;7.90;;;20.00;99.90;;;;;;5049231;28;20114;-71
2022/06/25 06:00:48;;;;;;;10.07;7.68;;;;;;;;;;5045993;28;20500;-71
2022/06/25 06:03:14;;;;;;;11.77;8.48;;;;;;;;;;5029075;28;20510;-72
2022/06/25 06:05:40;;;;;;;13.48;8.70;;;;;;;;;;5028312;28;20064;-67
2022/06/25 06:08:07;;;;;;;8.60;7.30;;;20.10;99.90;;;;;;5026764;28;20057;-68
2022/06/25 06:10:33;;;;;;;11.57;7.47;;;20.30;99.90;;;;;;5028114;28;20042;-68
2022/06/25 06:12:59;;;;;;;9.13;7.30;;;20.40;99.90;;;;;;5028446;28;20041;-68
2022/06/25 06:15:25;;;;;;;10.05;7.55;;;;;;;;;;5043237;28;20063;-68
2022/06/25 06:17:51;;;;;;;13.73;7.82;;;;;;;;;;5046865;28;20041;-68
2022/06/25 06:20:17;;;;;;;9.98;7.80;;;;;;;;;;5048004;28;20049;-68
2022/06/25 06:22:43;;;;;;;14.18;7.85;;;;;;;;;;5042412;28;20132;-68
2022/06/25 06:25:09;;;;;;;10.93;7.53;;;;;;;;;;5052273;28;20132;-68
2022/06/25 06:27:36;;;;;;;9.82;7.60;;;;;;;;;;5054318;28;20040;-68
2022/06/25 06:30:02;;;;;;;12.65;7.55;;;;;;;;;;5039725;28;20486;-70
2022/06/25 06:32:29;;;;;;;11.15;7.43;;;;;;;;;;5034188;28;20045;-70
2022/06/25 06:34:55;;;;;;;9.60;7.43;;;;;;;;;;5016614;28;20076;-70
2022/06/25 06:37:21;;;;;;;9.85;7.05;;;;;;;;;;5033720;28;20445;-70
2022/06/25 06:39:47;;;;;;;7.75;5.65;;;;;;;;;;5034261;28;20444;-72
2022/06/25 06:42:13;;;;;;;11.27;6.80;;;;;;;;;;5034045;28;20048;-71
2022/06/25 06:44:39;;;;;;;10.95;6.65;;;;;;;;;;5035066;28;20048;-72
2022/06/25 06:47:05;;;;;;;9.68;7.35;;;;;;;;;;5053812;28;20061;-72
2022/06/25 06:49:31;;;;;;;9.15;6.55;;;;;;;;;;5053509;28;20045;-70
2022/06/25 06:51:57;;;;;;;10.80;6.70;;;21.20;99.90;;;;;;5053561;28;20210;-71
2022/06/25 06:54:22;;;;;;;9.85;6.20;;;21.30;99.90;;;;;;5055576;28;20080;-71
2022/06/25 06:56:48;;;;;;;8.75;5.97;;;;;;;;;;5054279;28;20051;-70
2022/06/25 06:59:14;;;;;;;11.93;7.07;;;;;;;;;;5037748;28;20442;-69
2022/06/25 07:01:41;;;;;;;10.30;6.40;;;;;;;;;;5046489;28;20122;-71
2022/06/25 07:04:06;;;;;;;10.02;6.63;;;21.60;99.90;;;;;;5033202;28;20037;-70
2022/06/25 07:06:32;;;;;;;12.05;6.88;;;;;;;;;;5035361;28;20479;-72
2022/06/25 07:08:58;;;;;;;10.40;6.65;;;21.40;99.90;;;;;;5033682;28;20053;-70
2022/06/25 07:11:30;;;;;;;8.88;5.90;;;;;;;;;;5034707;28;20042;-71
2022/06/25 07:13:56;;;;;;;9.23;6.32;;;;;;;;;;5034846;28;20045;-70
2022/06/25 07:16:22;;;;;;;8.93;5.90;;;21.50;99.90;;;;;;5035082;28;20041;-71
2022/06/25 07:18:48;;;;;;;10.13;5.63;;;21.50;99.90;;;;;;5032728;28;20045;-71
2022/06/25 07:21:15;;;;;;;8.90;5.32;;;21.40;99.90;;;;;;5035121;28;20037;-71
2022/06/25 07:23:40;;;;;;;10.27;6.05;;;21.40;99.90;;;;;;5054981;28;20095;-71
2022/06/25 07:26:06;;;;;;;8.18;5.43;;;21.40;99.90;;;;;;5053496;28;20033;-70
2022/06/25 07:28:31;;;;;;;9.50;5.38;;;21.50;99.90;;;;;;5055182;28;20048;-71
2022/06/25 07:30:57;;;;;;;9.60;5.45;;;21.50;99.90;;;;;;5053106;28;20052;-70
2022/06/25 07:33:23;;;;;;;8.60;5.00;;;21.10;99.90;;;;;;5052926;28;20089;-70
2022/06/25 07:35:49;;;;;;;7.80;5.43;;;;;;;;;;5053536;28;20037;-70
2022/06/25 07:38:15;;;;;;;12.30;5.07;;;20.90;99.90;;;;;;5037162;28;20552;-70
2022/06/25 07:40:41;;;;;;;7.30;4.90;;;;;;;;;;5032979;28;20037;-71
2022/06/25 07:43:06;;;;;;;8.00;5.28;;;21.50;99.90;;;;;;5033976;28;20091;-71
2022/06/25 07:45:32;;;;;;;11.65;5.00;;;21.70;99.90;;;;;;5034698;28;20038;-71
2022/06/25 07:47:58;;;;;;;7.78;4.70;;;21.60;99.90;;;;;;5031861;28;20111;-71
2022/06/25 07:53:08;;;;;;;7.68;4.72;;;;;;;;;;5032551;28;20135;-71
2022/06/25 07:55:34;;;;;;;7.63;5.28;;;;;;;;;;5033356;28;20052;-70
2022/06/25 07:58:00;;;;;;;7.85;4.55;;;;;;;;;;5047253;28;20049;-71
2022/06/25 08:00:26;;;;;;;8.43;4.88;;;;;;;;;;5052239;28;20037;-71
2022/06/25 08:02:52;;;;;;;9.85;4.70;;;;;;;;;;5052498;28;20040;-71
2022/06/25 08:05:19;;;;;;;6.68;4.65;;;;;;;;;;5053059;28;20044;-70
2022/06/25 08:07:49;;;;;;;9.82;5.07;;;;;;;;;;5043006;28;20426;-70
2022/06/25 08:10:15;;;;;;;9.02;4.70;;;;;;;;;;5034833;28;20437;-70
2022/06/25 08:12:41;;;;;;;8.35;4.28;;;;;;;;;;5033096;28;20526;-70
2022/06/25 08:15:08;;;;;;;8.93;4.68;;;;;;;;;;5031386;28;20045;-69
2022/06/25 08:17:34;;;;;;;8.55;4.93;;;;;;;;;;5048630;28;20063;-70
2022/06/25 08:20:01;;;;;;;8.80;5.38;;;;;;;;;;5039434;28;20490;-70
2022/06/25 08:22:27;;;;;;;7.22;4.75;;;;;;;;;;5052018;28;20465;-70
2022/06/25 08:24:53;;;;;;;8.07;3.95;;;;;;;;;;5052363;28;20051;-70
2022/06/25 08:27:19;;;;;;;8.93;4.75;;;;;;;;;;5053944;28;20045;-70
2022/06/25 08:29:46;;;;;;;8.07;4.00;;;;;;;;;;5052572;28;20092;-71
2022/06/25 08:32:12;;;;;;;7.65;4.30;;;;;;;;;;5053483;28;20041;-72
2022/06/25 08:34:38;;;;;;;8.50;4.53;;;;;;;;;;5053824;28;20429;-70
2022/06/25 08:37:05;;;;;;;9.07;4.95;;;;;;;;;;5047408;28;20051;-71
2022/06/25 08:39:31;;;;;;;6.80;3.78;;;;;;;;;;5033744;28;20044;-71
2022/06/25 08:42:00;;;;;;;8.77;4.22;;;;;;;;;;5033398;28;20486;-70
2022/06/25 08:44:26;;;;;;;6.90;3.75;;;;;;;;;;5032788;28;20037;-70
2022/06/25 08:46:52;;;;;;;8.57;3.65;;;;;;;;;;5014516;28;20137;-71
2022/06/25 08:49:19;;;;;;;6.05;3.17;;;;;;;;;;5015135;28;20046;-71
2022/06/25 08:51:46;;;;;;;5.50;3.33;;;;;;;;;;5031978;28;20076;-71
2022/06/25 08:54:12;;;;;;;8.68;3.38;;;;;;;;;;5033322;28;20049;-71
2022/06/25 08:56:38;;;;;;;6.97;3.33;;;;;;;;;;5033785;28;20390;-71
2022/06/25 08:59:04;;;;;;;8.45;4.03;;;;;;;;;;5034247;28;20034;-72
2022/06/25 09:01:30;;;;;;;8.70;3.70;;;;;;;;;;5032062;28;20064;-71
2022/06/25 09:03:56;;;;;;;8.30;3.85;;;;;;;;;;5030510;28;20091;-71
2022/06/25 09:06:25;;;;;;;7.68;3.40;;;;;;;;;;5045723;28;20025;-69
2022/06/25 09:09:09;;;;;;;8.48;3.53;;;;;;;;;;5038990;28;20037;-69
2022/06/25 09:12:11;;;;;;;10.27;4.15;;;;;;;;;;5033543;28;20487;-72
2022/06/25 09:14:38;;;;;;;6.28;3.35;;;;;;;;;;5006397;28;20052;-70
2022/06/25 09:17:06;;;;;;;6.97;3.50;;;;;;;;;;5031393;28;20073;-70
2022/06/25 09:19:36;;;;;;;6.78;3.65;;;;;;;;;;5015431;28;20038;-69
2022/06/25 09:22:06;;;;;;;7.45;3.85;;;;;;;;;;5014630;28;20040;-70
2022/06/25 09:24:41;;;;;;;8.73;4.13;;;;;;;;;;5031909;28;20041;-70
2022/06/25 09:27:07;;;;;;;8.23;5.05;;;;;;;;;;5047794;28;20041;-70
2022/06/25 09:29:42;;;;;;;11.15;4.85;;;;;;;;;;5032885;28;20072;-70
2022/06/25 09:32:08;;;;;;;7.72;4.10;;;;;;;;;;5030364;28;20045;-70
2022/06/25 09:34:36;;;;;;;8.45;5.07;;;23.40;99.90;;;;;;5047973;28;20048;-71
2022/06/25 09:37:23;;;;;;;9.18;4.82;;;23.60;99.90;;;;;;5030723;28;20402;-71
2022/06/25 09:39:50;;;;;;;7.45;4.03;;;23.60;99.90;;;;;;5013739;28;20041;-70
2022/06/25 09:42:34;;;;;;;6.88;3.17;;;23.60;99.90;;;;;;5032699;28;20390;-70
2022/06/25 09:45:06;;;;;;;7.82;3.70;;;23.30;99.90;;;;;;5031127;28;20037;-70
2022/06/25 09:47:40;;;;;;;6.18;3.85;;;23.50;99.90;;;;;;5013790;28;20089;-71
2022/06/25 09:50:18;;;;;;;6.70;4.10;;;23.50;99.90;;;;;;5030860;28;20049;-70
2022/06/25 09:52:51;;;;;;;6.68;3.72;;;23.30;99.90;;;;;;5030132;28;20087;-70
2022/06/25 09:55:17;;;;;;;8.45;3.60;;;23.40;99.90;;;;;;5031104;28;20043;-70
2022/06/25 09:57:45;;;;;;;8.15;5.03;;;23.50;99.90;;;;;;5031017;28;20124;-71
2022/06/25 10:00:11;;;;;;;6.57;4.32;;;23.60;99.90;;;;;;5031181;28;20120;-70
2022/06/25 10:02:37;;;;;;;6.30;4.15;;;;;;;;;;5031359;28;20037;-70
2022/06/25 10:05:04;;;;;;;9.18;4.35;;;23.40;99.90;;;;;;5047017;28;20517;-70
2022/06/25 10:10:21;;;;;;;7.10;3.60;;;23.70;99.90;;;;;;5032224;28;20045;-70
2022/06/25 10:12:47;;;;;;;6.40;3.75;;;23.60;99.90;;;;;;5031879;28;20042;-70
2022/06/25 10:15:18;;;;;;;7.57;4.18;;;23.70;99.90;;;;;;5030062;28;20057;-70
2022/06/25 10:17:46;;;;;;;6.97;4.07;;;23.70;99.90;;;;;;5030564;28;20056;-70
2022/06/25 10:20:12;;;;;;;7.22;3.75;;;;;;;;;;5030643;28;20041;-69
2022/06/25 10:22:39;;;;;;;9.57;3.58;;;23.80;99.90;;;;;;5031769;28;20064;-70
2022/06/25 10:25:08;;;;;;;7.00;3.33;;;;;;;;;;5043220;28;20041;-70
2022/06/25 10:27:38;;;;;;;7.13;3.75;;;;;;;;;;5030387;28;20057;-71
2022/06/25 10:30:05;;;;;;;8.00;3.85;;;24.40;99.90;;;;;;5031108;28;20045;-71
2022/06/25 10:32:47;;;;;;;6.05;3.00;;;24.50;99.90;;;;;;5023630;28;20052;-70
2022/06/25 10:35:29;;;;;;;5.45;2.70;;;24.50;99.90;;;;;;5013601;28;20478;-71
2022/06/25 10:38:10;;;;;;;5.65;2.83;;;24.50;99.90;;;;;;5030077;28;20120;-71
2022/06/25 10:43:49;;;;;;;5.75;3.15;;;24.80;99.90;;;;;;5029602;28;20049;-70
2022/06/25 10:46:28;;;;;;;5.60;3.75;;;24.70;99.90;;;;;;5031945;28;20049;-71
2022/06/25 10:49:07;;;;;;;6.05;2.70;;;24.80;99.90;;;;;;5029890;28;20052;-71
2022/06/25 10:51:48;;;;;;;5.65;3.17;;;24.20;99.90;;;;;;5030569;28;20045;-69
2022/06/25 10:54:22;;;;;;;4.60;2.55;;;24.70;99.90;;;;;;5032257;28;20052;-72
2022/06/25 10:56:51;;;;;;;5.93;2.90;;;24.60;99.90;;;;;;5035849;28;20052;-72
2022/06/25 10:59:34;;;;;;;5.22;2.58;;;24.60;99.90;;;;;;5033434;28;20041;-71
2022/06/25 11:02:05;;;;;;;6.55;3.30;;;24.40;99.90;;;;;;5050699;28;20045;-71
2022/06/25 11:04:32;;;;;;;6.18;3.20;;;24.30;99.90;;;;;;5049730;28;20108;-70
2022/06/25 11:07:17;;;;;;;5.72;2.78;;;24.10;99.90;;;;;;5051138;28;20033;-70
2022/06/25 11:10:01;;;;;;;5.63;2.70;;;23.90;99.90;;;;;;5033929;28;20167;-70
2022/06/25 11:12:29;;;;;;;5.82;2.25;;;;;;;;;;5037581;28;20044;-70
2022/06/25 11:15:08;;;;;;;6.30;2.90;;;23.60;99.90;;;;;;5053068;28;20106;-70
2022/06/25 11:17:34;;;;;;;5.97;3.08;;;23.30;99.90;;;;;;5054666;28;20037;-70
2022/06/25 11:20:04;;;;;;;6.38;2.90;;;;;;;;;;5053322;28;20072;-69
2022/06/25 11:22:30;;;;;;;6.53;2.53;;;;;;;;;;5054021;28;20045;-70
2022/06/25 11:30:29;;;;;;;6.70;3.00;;;;;;;;;;5053199;28;20044;-70
2022/06/25 11:32:56;;;;;;;7.55;3.10;;;;;;;;;;5044415;28;20045;-70
2022/06/25 11:35:22;;;;;;;6.45;2.70;;;;;;;;;;5036017;28;20046;-71
2022/06/25 11:37:48;;;;;;;8.77;3.47;;;;;;;;;;5033693;28;20045;-70
2022/06/25 11:40:15;;;;;;;6.93;2.83;;;;;;;;;;5033450;28;20475;-71
2022/06/25 11:42:42;;;;;;;6.97;3.97;;;;;;;;;;5033682;28;20072;-68
2022/06/25 11:45:09;;;;;;;9.00;3.42;;;20.90;99.90;;;;;;5034566;28;20041;-70
2022/06/25 11:47:36;;;;;;;8.35;3.50;;;20.80;99.90;;;;;;5042843;28;20061;-74
2022/06/25 11:50:11;;;;;;;10.18;4.03;;;20.70;99.90;;;;;;5036177;28;20102;-74
2022/06/25 11:52:43;;;;;;;8.80;5.38;;;21.00;99.90;;;;;;5052980;28;20044;-75
2022/06/25 11:55:10;;;;;;;8.40;5.45;;;20.80;99.90;;;;;;5044314;28;20041;-72
2022/06/25 11:57:42;;;;;;;8.00;4.97;;;20.90;99.90;;;;;;5034674;28;20098;-71
2022/06/25 12:00:09;;;;;;;7.70;3.90;;;21.10;99.90;;;;;;5031939;28;20045;-70
2022/06/25 12:02:35;;;;;;;9.18;4.88;;;21.50;99.90;;;;;;5034412;28;20116;-69
2022/06/25 12:05:03;;;;;;;8.05;5.93;;;21.40;99.90;;;;;;5033512;28;20125;-69
2022/06/25 12:07:33;;;;;;;8.27;4.75;;;21.50;99.90;;;;;;5032059;28;20049;-70
2022/06/25 12:10:07;;;;;;;9.73;6.10;;;21.70;99.90;;;;;;5033699;28;20120;-70
2022/06/25 12:12:34;;;;;;;10.70;6.30;;;21.80;99.90;;;;;;5033021;28;20128;-70
2022/06/25 12:15:03;;;;;;;10.65;6.88;;;22.00;99.90;;;;;;5031499;28;20046;-71
2022/06/25 12:17:33;;;;;;;8.90;6.20;;;22.00;99.90;;;;;;5033806;28;20037;-70
2022/06/25 12:20:13;;;;;;;8.80;5.15;;;22.00;99.90;;;;;;5031327;28;20518;-70
2022/06/25 12:22:45;;;;;;;7.07;4.85;;;22.00;99.90;;;;;;5031873;28;20120;-70
2022/06/25 12:25:12;;;;;;;11.27;5.20;;;21.80;99.90;;;;;;5033592;28;20045;-70
2022/06/25 12:27:50;;;;;;;11.02;6.03;;;22.00;99.90;;;;;;5040295;28;20041;-70
2022/06/25 12:30:30;;;;;;;11.30;5.05;;;21.80;99.90;;;;;;5036163;28;20036;-69
2022/06/25 12:33:04;;;;;;;7.03;4.38;;;21.80;99.90;;;;;;5053381;28;20048;-69
2022/06/25 12:35:30;;;;;;;10.68;6.13;;;21.70;99.90;;;;;;5035353;28;20071;-69
2022/06/25 12:38:08;;;;;;;14.10;6.78;;;21.70;99.90;;;;;;5036103;28;20471;-69
2022/06/25 12:40:42;;;;;;;11.90;7.80;;;21.70;99.90;;;;;;5034499;28;20041;-73
2022/06/25 12:43:09;;;;;;;9.80;6.50;;;21.60;99.90;;;;;;5032602;28;20045;-71
2022/06/25 12:45:40;;;;;;;10.02;5.97;;;21.50;99.90;;;;;;5052173;28;20037;-72
2022/06/25 12:48:09;;;;;;;7.53;4.55;;;21.70;99.90;;;;;;5041942;28;20052;-70
2022/06/25 12:50:39;;;;;;;8.43;4.88;;;21.70;99.90;;;;;;5041405;28;20041;-70
2022/06/25 12:53:13;;;;;;;11.63;4.78;;;22.00;99.90;;;;;;5027141;28;20464;-70
2022/06/25 12:55:44;;;;;;;7.82;5.18;;;21.90;99.90;;;;;;5048484;28;20080;-70
2022/06/25 12:58:14;;;;;;;10.95;7.00;;;22.30;99.90;;;;;;5044679;28;20053;-71
2022/06/25 13:00:43;;;;;;;8.48;4.50;;;;;;;;;;5047844;28;20063;-71
2022/06/25 13:03:09;;;;;;;8.00;4.93;;;;;;;;;;5047513;28;20072;-72
2022/06/25 13:05:35;;;;;;;11.20;6.30;;;;;;;;;;5045642;28;20041;-71
2022/06/25 13:08:01;;;;;;;7.38;4.90;;;;;;;;;;5048491;28;20556;-72
2022/06/25 13:10:28;;;;;;;10.85;5.22;;;;;;;;;;5049402;28;20552;-71
2022/06/25 13:12:54;;;;;;;10.43;5.65;;;;;;;;;;5049692;28;20128;-71
2022/06/25 13:15:20;;;;;;;11.90;5.32;;;;;;;;;;5032266;28;20045;-71
2022/06/25 13:17:47;;;;;;;7.82;5.53;;;;;;;;;;5027010;28;20041;-71
2022/06/25 13:20:13;;;;;;;9.90;5.93;;;;;;;;;;5045940;28;20363;-71
2022/06/25 13:22:40;;;;;;;8.25;4.95;;;;;;;;;;5041667;28;20144;-71
2022/06/25 13:25:09;;;;;;;9.48;5.00;;;;;;;;;;5041636;28;20037;-71
2022/06/25 13:27:38;;;;;;;8.60;4.70;;;;;;;;;;5048810;28;20044;-71
2022/06/25 13:30:05;;;;;;;8.25;4.65;;;;;;;;;;5048058;28;20036;-71
2022/06/25 13:32:31;;;;;;;10.20;5.78;;;;;;;;;;5049064;28;20037;-71
2022/06/25 13:34:57;;;;;;;8.50;5.43;;;;;;;;;;5048184;28;20568;-71
2022/06/25 13:37:23;;;;;;;7.18;4.40;;;;;;;;;;5039792;28;20048;-71
2022/06/25 13:39:49;;;;;;;9.25;5.65;;;;;;;;;;5048006;28;20037;-71
2022/06/25 13:42:15;;;;;;;9.13;5.75;;;;;;;;;;5046532;28;20048;-71
2022/06/25 13:44:41;;;;;;;8.32;4.97;;;;;;;;;;5044011;28;20037;-71
2022/06/25 13:47:08;;;;;;;9.15;5.47;;;;;;;;;;5047091;28;20055;-71
2022/06/25 13:49:35;;;;;;;10.02;6.10;;;;;;;;;;5049409;28;20063;-71
2022/06/25 13:52:02;;;;;;;7.88;5.55;;;;;;;;;;5027275;28;20044;-71
2022/06/25 13:54:28;;;;;;;9.45;5.40;;;;;;;;;;5035612;28;20175;-72
2022/06/25 13:56:54;;;;;;;7.13;5.10;;;;;;;;;;5029454;28;20123;-71
2022/06/25 13:59:21;;;;;;;9.43;5.00;;;;;;;;;;5042527;28;20494;-71
2022/06/25 14:01:47;;;;;;;7.05;5.30;;;;;;;;;;5049756;28;20565;-71
2022/06/25 14:04:13;;;;;;;8.48;5.55;;;;;;;;;;5047225;28;20094;-71
2022/06/25 14:06:39;;;;;;;10.65;6.88;;;;;;;;;;5056912;28;20036;-72
2022/06/25 14:09:06;;;;;;;9.23;6.32;;;;;;;;;;5039863;28;20422;-72
2022/06/25 14:11:33;;;;;;;8.98;5.93;;;;;;;;;;5056179;28;20053;-74
2022/06/25 14:13:59;;;;;;;11.27;6.75;;;;;;;;;;5042626;28;20044;-75